sensor_id;sensor_type;location;lat;lon;timestamp;temperature;humidity
28947;DHT22;16052;50.930;5.326;2022-07-10T00:02:05;18.40;1.00
28947;DHT22;16052;50.930;5.326;2022-07-10T00:04:31;18.60;1.00
28947;DHT22;16052;50.930;5.326;2022-07-10T00:06:56;18.50;1.00
28947;DHT22;16052;50.930;5.326;2022-07-10T00:09:24;18.70;1.00
28947;DHT22;16052;50.930;5.326;2022-07-10T00:11:49;18.80;1.00
28947;DHT22;16052;50.930;5.326;2022-07-10T00:14:15;18.50;1.00
28947;DHT22;16052;50.930;5.326;2022-07-10T00:16:41;18.10;1.00
28947;DHT22;16052;50.930;5.326;2022-07-10T00:19:06;18.00;1.00
28947;DHT22;16052;50.930;5.326;2022-07-10T00:21:32;18.30;1.00
28947;DHT22;16052;50.930;5.326;2022-07-10T00:23:58;18.30;1.00
28947;DHT22;16052;50.930;5.326;2022-07-10T00:26:23;18.20;1.00
28947;DHT22;16052;50.930;5.326;2022-07-10T00:28:49;17.90;1.00
28947;DHT22;16052;50.930;5.326;2022-07-10T00:31:15;17.80;1.00
28947;DHT22;16052;50.930;5.326;2022-07-10T00:33:40;17.70;1.00
28947;DHT22;16052;50.930;5.326;2022-07-10T00:36:06;17.60;1.00
28947;DHT22;16052;50.930;5.326;2022-07-10T00:38:32;17.80;1.00
28947;DHT22;16052;50.930;5.326;2022-07-10T00:40:59;17.90;1.00
28947;DHT22;16052;50.930;5.326;2022-07-10T00:43:24;17.90;1.00
28947;DHT22;16052;50.930;5.326;2022-07-10T00:45:51;18.20;1.00
28947;DHT22;16052;50.930;5.326;2022-07-10T00:48:17;18.20;1.00
28947;DHT22;16052;50.930;5.326;2022-07-10T00:50:44;18.10;1.00
28947;DHT22;16052;50.930;5.326;2022-07-10T00:53:12;18.10;1.00
28947;DHT22;16052;50.930;5.326;2022-07-10T00:55:39;17.80;1.00
28947;DHT22;16052;50.930;5.326;2022-07-10T00:58:11;18.00;1.00
28947;DHT22;16052;50.930;5.326;2022-07-10T01:00:36;17.70;1.00
28947;DHT22;16052;50.930;5.326;2022-07-10T01:03:03;17.60;1.00
28947;DHT22;16052;50.930;5.326;2022-07-10T01:05:29;17.70;1.00
28947;DHT22;16052;50.930;5.326;2022-07-10T01:07:55;17.50;1.00
28947;DHT22;16052;50.930;5.326;2022-07-10T01:10:20;18.00;1.00
28947;DHT22;16052;50.930;5.326;2022-07-10T01:12:46;18.30;1.00
28947;DHT22;16052;50.930;5.326;2022-07-10T01:15:12;18.40;1.00
28947;DHT22;16052;50.930;5.326;2022-07-10T01:17:38;18.30;1.00
28947;DHT22;16052;50.930;5.326;2022-07-10T01:20:08;18.40;1.00
28947;DHT22;16052;50.930;5.326;2022-07-10T01:22:35;17.90;1.00
28947;DHT22;16052;50.930;5.326;2022-07-10T01:25:01;17.90;1.00
28947;DHT22;16052;50.930;5.326;2022-07-10T01:27:27;17.50;1.00
28947;DHT22;16052;50.930;5.326;2022-07-10T01:29:53;17.60;1.00
28947;DHT22;16052;50.930;5.326;2022-07-10T01:32:19;17.60;1.00
28947;DHT22;16052;50.930;5.326;2022-07-10T01:34:45;17.60;1.00
28947;DHT22;16052;50.930;5.326;2022-07-10T01:37:12;17.60;1.00
28947;DHT22;16052;50.930;5.326;2022-07-10T01:39:38;17.80;1.00
28947;DHT22;16052;50.930;5.326;2022-07-10T01:42:04;17.90;1.00
28947;DHT22;16052;50.930;5.326;2022-07-10T01:44:29;17.60;1.00
28947;DHT22;16052;50.930;5.326;2022-07-10T01:46:55;17.60;1.00
28947;DHT22;16052;50.930;5.326;2022-07-10T01:49:21;17.70;1.00
28947;DHT22;16052;50.930;5.326;2022-07-10T01:51:46;17.90;1.00
28947;DHT22;16052;50.930;5.326;2022-07-10T01:54:12;17.80;1.00
28947;DHT22;16052;50.930;5.326;2022-07-10T01:56:38;18.20;1.00
28947;DHT22;16052;50.930;5.326;2022-07-10T01:59:04;18.30;1.00
28947;DHT22;16052;50.930;5.326;2022-07-10T02:01:30;18.30;1.00
28947;DHT22;16052;50.930;5.326;2022-07-10T02:03:57;18.20;1.00
28947;DHT22;16052;50.930;5.326;2022-07-10T02:06:41;18.20;1.00
28947;DHT22;16052;50.930;5.326;2022-07-10T02:09:07;18.20;1.00
28947;DHT22;16052;50.930;5.326;2022-07-10T02:11:32;18.00;1.00
28947;DHT22;16052;50.930;5.326;2022-07-10T02:13:58;17.90;1.00
28947;DHT22;16052;50.930;5.326;2022-07-10T02:16:23;17.80;1.00
28947;DHT22;16052;50.930;5.326;2022-07-10T02:18:49;17.80;1.00
28947;DHT22;16052;50.930;5.326;2022-07-10T02:21:15;17.90;1.00
28947;DHT22;16052;50.930;5.326;2022-07-10T02:23:40;18.00;1.00
28947;DHT22;16052;50.930;5.326;2022-07-10T02:26:07;18.00;1.00
28947;DHT22;16052;50.930;5.326;2022-07-10T02:28:33;17.80;1.00
28947;DHT22;16052;50.930;5.326;2022-07-10T02:30:59;17.90;1.00
28947;DHT22;16052;50.930;5.326;2022-07-10T02:33:25;18.10;1.00
28947;DHT22;16052;50.930;5.326;2022-07-10T02:35:51;18.00;1.00
28947;DHT22;16052;50.930;5.326;2022-07-10T02:38:16;17.70;1.00
28947;DHT22;16052;50.930;5.326;2022-07-10T02:40:42;17.60;1.00
28947;DHT22;16052;50.930;5.326;2022-07-10T02:43:08;17.70;1.00
28947;DHT22;16052;50.930;5.326;2022-07-10T02:45:33;17.70;1.00
28947;DHT22;16052;50.930;5.326;2022-07-10T02:47:59;17.70;1.00
28947;DHT22;16052;50.930;5.326;2022-07-10T02:50:27;17.60;1.00
28947;DHT22;16052;50.930;5.326;2022-07-10T02:52:52;17.60;1.00
28947;DHT22;16052;50.930;5.326;2022-07-10T02:55:18;17.50;1.00
28947;DHT22;16052;50.930;5.326;2022-07-10T02:57:43;17.60;1.00
28947;DHT22;16052;50.930;5.326;2022-07-10T03:00:10;17.40;1.00
28947;DHT22;16052;50.930;5.326;2022-07-10T03:02:36;17.50;1.00
28947;DHT22;16052;50.930;5.326;2022-07-10T03:05:03;17.60;1.00
28947;DHT22;16052;50.930;5.326;2022-07-10T03:07:29;17.60;1.00
28947;DHT22;16052;50.930;5.326;2022-07-10T03:09:55;17.60;1.00
28947;DHT22;16052;50.930;5.326;2022-07-10T03:12:20;17.50;1.00
28947;DHT22;16052;50.930;5.326;2022-07-10T03:14:46;17.60;1.00
28947;DHT22;16052;50.930;5.326;2022-07-10T03:17:12;17.40;1.00
28947;DHT22;16052;50.930;5.326;2022-07-10T03:19:37;17.40;1.00
28947;DHT22;16052;50.930;5.326;2022-07-10T03:22:03;17.20;2.80
28947;DHT22;16052;50.930;5.326;2022-07-10T03:24:29;17.30;2.50
28947;DHT22;16052;50.930;5.326;2022-07-10T03:26:56;17.20;4.90
28947;DHT22;16052;50.930;5.326;2022-07-10T03:29:21;17.10;8.60
28947;DHT22;16052;50.930;5.326;2022-07-10T03:31:47;17.00;8.70
28947;DHT22;16052;50.930;5.326;2022-07-10T03:34:13;16.90;10.90
28947;DHT22;16052;50.930;5.326;2022-07-10T03:36:38;17.10;9.50
28947;DHT22;16052;50.930;5.326;2022-07-10T03:39:04;17.10;9.40
28947;DHT22;16052;50.930;5.326;2022-07-10T03:41:30;17.10;8.40
28947;DHT22;16052;50.930;5.326;2022-07-10T03:43:56;17.10;9.70
28947;DHT22;16052;50.930;5.326;2022-07-10T03:46:21;17.20;6.70
28947;DHT22;16052;50.930;5.326;2022-07-10T03:48:47;17.30;4.10
28947;DHT22;16052;50.930;5.326;2022-07-10T03:51:13;17.10;7.90
28947;DHT22;16052;50.930;5.326;2022-07-10T03:53:39;17.20;7.90
28947;DHT22;16052;50.930;5.326;2022-07-10T03:56:05;17.30;6.50
28947;DHT22;16052;50.930;5.326;2022-07-10T03:58:31;17.10;9.60
28947;DHT22;16052;50.930;5.326;2022-07-10T04:00:56;17.10;11.10
28947;DHT22;16052;50.930;5.326;2022-07-10T04:03:22;17.00;12.20
28947;DHT22;16052;50.930;5.326;2022-07-10T04:05:47;17.10;10.10
28947;DHT22;16052;50.930;5.326;2022-07-10T04:08:13;17.00;12.60
28947;DHT22;16052;50.930;5.326;2022-07-10T04:10:39;17.10;10.90
28947;DHT22;16052;50.930;5.326;2022-07-10T04:13:05;17.10;11.50
28947;DHT22;16052;50.930;5.326;2022-07-10T04:15:30;17.00;12.80
28947;DHT22;16052;50.930;5.326;2022-07-10T04:17:56;17.10;12.80
28947;DHT22;16052;50.930;5.326;2022-07-10T04:20:22;17.00;12.70
28947;DHT22;16052;50.930;5.326;2022-07-10T04:22:48;17.00;15.20
28947;DHT22;16052;50.930;5.326;2022-07-10T04:25:14;16.90;15.50
28947;DHT22;16052;50.930;5.326;2022-07-10T04:27:40;16.90;16.50
28947;DHT22;16052;50.930;5.326;2022-07-10T04:30:06;17.00;14.60
28947;DHT22;16052;50.930;5.326;2022-07-10T04:32:32;17.00;13.70
28947;DHT22;16052;50.930;5.326;2022-07-10T04:34:58;16.90;16.90
28947;DHT22;16052;50.930;5.326;2022-07-10T04:37:26;16.90;16.80
28947;DHT22;16052;50.930;5.326;2022-07-10T04:39:51;17.00;16.30
28947;DHT22;16052;50.930;5.326;2022-07-10T04:42:17;17.10;14.60
28947;DHT22;16052;50.930;5.326;2022-07-10T04:44:43;16.90;15.50
28947;DHT22;16052;50.930;5.326;2022-07-10T04:47:08;17.00;15.50
28947;DHT22;16052;50.930;5.326;2022-07-10T04:49:34;16.90;17.70
28947;DHT22;16052;50.930;5.326;2022-07-10T04:52:01;16.90;17.60
28947;DHT22;16052;50.930;5.326;2022-07-10T04:54:26;16.80;18.30
28947;DHT22;16052;50.930;5.326;2022-07-10T04:56:52;16.70;22.10
28947;DHT22;16052;50.930;5.326;2022-07-10T04:59:18;16.70;20.40
28947;DHT22;16052;50.930;5.326;2022-07-10T05:01:43;16.70;21.10
28947;DHT22;16052;50.930;5.326;2022-07-10T05:04:10;16.70;22.00
28947;DHT22;16052;50.930;5.326;2022-07-10T05:06:36;16.60;24.30
28947;DHT22;16052;50.930;5.326;2022-07-10T05:09:02;16.60;24.60
28947;DHT22;16052;50.930;5.326;2022-07-10T05:11:28;16.60;24.50
28947;DHT22;16052;50.930;5.326;2022-07-10T05:13:55;16.60;26.80
28947;DHT22;16052;50.930;5.326;2022-07-10T05:16:21;16.60;24.30
28947;DHT22;16052;50.930;5.326;2022-07-10T05:18:47;16.60;26.80
28947;DHT22;16052;50.930;5.326;2022-07-10T05:21:13;16.70;26.80
28947;DHT22;16052;50.930;5.326;2022-07-10T05:23:39;16.70;25.50
28947;DHT22;16052;50.930;5.326;2022-07-10T05:26:05;16.70;25.10
28947;DHT22;16052;50.930;5.326;2022-07-10T05:28:31;16.70;25.10
28947;DHT22;16052;50.930;5.326;2022-07-10T05:30:57;16.70;25.50
28947;DHT22;16052;50.930;5.326;2022-07-10T05:33:23;16.70;27.60
28947;DHT22;16052;50.930;5.326;2022-07-10T05:35:49;16.80;26.60
28947;DHT22;16052;50.930;5.326;2022-07-10T05:38:14;16.80;25.60
28947;DHT22;16052;50.930;5.326;2022-07-10T05:40:40;16.80;25.90
28947;DHT22;16052;50.930;5.326;2022-07-10T05:43:06;16.80;27.30
28947;DHT22;16052;50.930;5.326;2022-07-10T05:45:32;16.90;26.90
28947;DHT22;16052;50.930;5.326;2022-07-10T05:47:57;16.90;25.70
28947;DHT22;16052;50.930;5.326;2022-07-10T05:50:23;17.10;23.40
28947;DHT22;16052;50.930;5.326;2022-07-10T05:52:49;17.00;24.70
28947;DHT22;16052;50.930;5.326;2022-07-10T05:55:14;17.10;25.60
28947;DHT22;16052;50.930;5.326;2022-07-10T05:57:40;17.00;26.10
28947;DHT22;16052;50.930;5.326;2022-07-10T06:00:07;17.00;27.20
28947;DHT22;16052;50.930;5.326;2022-07-10T06:02:33;17.00;27.10
28947;DHT22;16052;50.930;5.326;2022-07-10T06:04:59;17.00;27.90
28947;DHT22;16052;50.930;5.326;2022-07-10T06:07:26;17.00;30.00
28947;DHT22;16052;50.930;5.326;2022-07-10T06:09:52;17.20;31.40
28947;DHT22;16052;50.930;5.326;2022-07-10T06:12:19;17.30;27.40
28947;DHT22;16052;50.930;5.326;2022-07-10T06:14:44;17.20;29.50
28947;DHT22;16052;50.930;5.326;2022-07-10T06:17:10;17.20;31.20
28947;DHT22;16052;50.930;5.326;2022-07-10T06:19:36;17.20;30.00
28947;DHT22;16052;50.930;5.326;2022-07-10T06:22:02;17.20;30.00
28947;DHT22;16052;50.930;5.326;2022-07-10T06:24:46;17.30;29.20
28947;DHT22;16052;50.930;5.326;2022-07-10T06:27:11;17.20;38.90
28947;DHT22;16052;50.930;5.326;2022-07-10T06:29:37;17.30;35.10
28947;DHT22;16052;50.930;5.326;2022-07-10T06:32:04;17.40;32.10
28947;DHT22;16052;50.930;5.326;2022-07-10T06:34:30;17.50;29.60
28947;DHT22;16052;50.930;5.326;2022-07-10T06:36:56;17.50;28.40
28947;DHT22;16052;50.930;5.326;2022-07-10T06:39:21;17.60;26.90
28947;DHT22;16052;50.930;5.326;2022-07-10T06:41:47;17.60;29.30
28947;DHT22;16052;50.930;5.326;2022-07-10T06:44:13;17.70;28.60
28947;DHT22;16052;50.930;5.326;2022-07-10T06:46:38;17.80;25.90
28947;DHT22;16052;50.930;5.326;2022-07-10T06:49:07;17.80;26.00
28947;DHT22;16052;50.930;5.326;2022-07-10T06:51:34;17.70;25.30
28947;DHT22;16052;50.930;5.326;2022-07-10T06:54:01;17.60;30.00
28947;DHT22;16052;50.930;5.326;2022-07-10T06:56:30;17.60;29.80
28947;DHT22;16052;50.930;5.326;2022-07-10T06:58:56;18.00;22.90
28947;DHT22;16052;50.930;5.326;2022-07-10T07:01:23;18.10;21.80
28947;DHT22;16052;50.930;5.326;2022-07-10T07:03:49;18.20;16.50
28947;DHT22;16052;50.930;5.326;2022-07-10T07:06:15;18.20;15.10
28947;DHT22;16052;50.930;5.326;2022-07-10T07:08:41;18.10;20.90
28947;DHT22;16052;50.930;5.326;2022-07-10T07:11:09;18.20;15.30
28947;DHT22;16052;50.930;5.326;2022-07-10T07:13:35;18.10;19.80
28947;DHT22;16052;50.930;5.326;2022-07-10T07:16:01;18.10;19.90
28947;DHT22;16052;50.930;5.326;2022-07-10T07:18:31;17.90;22.90
28947;DHT22;16052;50.930;5.326;2022-07-10T07:21:02;18.10;17.90
28947;DHT22;16052;50.930;5.326;2022-07-10T07:23:46;18.20;14.30
28947;DHT22;16052;50.930;5.326;2022-07-10T07:26:12;18.00;19.30
28947;DHT22;16052;50.930;5.326;2022-07-10T07:28:39;17.80;24.00
28947;DHT22;16052;50.930;5.326;2022-07-10T07:31:05;18.10;19.30
28947;DHT22;16052;50.930;5.326;2022-07-10T07:33:31;18.10;21.30
28947;DHT22;16052;50.930;5.326;2022-07-10T07:35:56;18.40;12.00
28947;DHT22;16052;50.930;5.326;2022-07-10T07:38:22;18.30;8.20
28947;DHT22;16052;50.930;5.326;2022-07-10T07:40:49;18.10;16.40
28947;DHT22;16052;50.930;5.326;2022-07-10T07:43:15;18.10;17.70
28947;DHT22;16052;50.930;5.326;2022-07-10T07:45:41;18.40;11.10
28947;DHT22;16052;50.930;5.326;2022-07-10T07:48:07;18.60;1.00
28947;DHT22;16052;50.930;5.326;2022-07-10T07:50:35;18.70;1.00
28947;DHT22;16052;50.930;5.326;2022-07-10T07:53:05;18.80;1.00
28947;DHT22;16052;50.930;5.326;2022-07-10T07:55:33;18.50;1.70
28947;DHT22;16052;50.930;5.326;2022-07-10T07:57:59;18.40;6.40
28947;DHT22;16052;50.930;5.326;2022-07-10T08:00:27;18.60;2.10
28947;DHT22;16052;50.930;5.326;2022-07-10T08:02:54;19.00;1.00
28947;DHT22;16052;50.930;5.326;2022-07-10T08:05:21;19.20;1.00
28947;DHT22;16052;50.930;5.326;2022-07-10T08:07:54;19.20;1.00
28947;DHT22;16052;50.930;5.326;2022-07-10T08:10:23;19.20;1.00
28947;DHT22;16052;50.930;5.326;2022-07-10T08:12:49;19.30;1.00
28947;DHT22;16052;50.930;5.326;2022-07-10T08:15:17;19.30;1.00
28947;DHT22;16052;50.930;5.326;2022-07-10T08:17:47;19.30;1.00
28947;DHT22;16052;50.930;5.326;2022-07-10T08:20:12;19.50;1.00
28947;DHT22;16052;50.930;5.326;2022-07-10T08:22:44;19.60;1.00
28947;DHT22;16052;50.930;5.326;2022-07-10T08:25:10;19.80;1.00
28947;DHT22;16052;50.930;5.326;2022-07-10T08:27:39;20.00;1.00
28947;DHT22;16052;50.930;5.326;2022-07-10T08:30:05;19.80;1.00
28947;DHT22;16052;50.930;5.326;2022-07-10T08:32:32;19.60;1.00
28947;DHT22;16052;50.930;5.326;2022-07-10T08:34:58;19.40;1.00
28947;DHT22;16052;50.930;5.326;2022-07-10T08:37:26;19.50;1.00
28947;DHT22;16052;50.930;5.326;2022-07-10T08:39:52;19.70;1.00
28947;DHT22;16052;50.930;5.326;2022-07-10T08:42:18;19.70;1.00
28947;DHT22;16052;50.930;5.326;2022-07-10T08:44:44;19.70;1.00
28947;DHT22;16052;50.930;5.326;2022-07-10T08:47:10;19.60;1.00
28947;DHT22;16052;50.930;5.326;2022-07-10T08:49:46;19.50;1.00
28947;DHT22;16052;50.930;5.326;2022-07-10T08:52:38;19.10;1.00
28947;DHT22;16052;50.930;5.326;2022-07-10T08:55:06;19.10;1.00
28947;DHT22;16052;50.930;5.326;2022-07-10T08:57:34;19.10;1.00
28947;DHT22;16052;50.930;5.326;2022-07-10T09:00:01;19.10;1.00
28947;DHT22;16052;50.930;5.326;2022-07-10T09:02:27;19.20;1.00
28947;DHT22;16052;50.930;5.326;2022-07-10T09:04:52;19.40;1.00
28947;DHT22;16052;50.930;5.326;2022-07-10T09:07:21;19.60;1.00
28947;DHT22;16052;50.930;5.326;2022-07-10T09:09:56;19.80;1.00
28947;DHT22;16052;50.930;5.326;2022-07-10T09:12:24;20.00;1.00
28947;DHT22;16052;50.930;5.326;2022-07-10T09:14:51;20.20;1.00
28947;DHT22;16052;50.930;5.326;2022-07-10T09:17:20;20.30;1.00
28947;DHT22;16052;50.930;5.326;2022-07-10T09:19:47;20.50;1.00
28947;DHT22;16052;50.930;5.326;2022-07-10T09:22:13;20.60;1.00
28947;DHT22;16052;50.930;5.326;2022-07-10T09:24:47;20.80;1.00
28947;DHT22;16052;50.930;5.326;2022-07-10T09:27:14;21.00;1.00
28947;DHT22;16052;50.930;5.326;2022-07-10T09:30:07;21.10;1.00
28947;DHT22;16052;50.930;5.326;2022-07-10T09:32:33;21.20;1.00
28947;DHT22;16052;50.930;5.326;2022-07-10T09:34:58;21.20;1.00
28947;DHT22;16052;50.930;5.326;2022-07-10T09:37:43;21.20;1.00
28947;DHT22;16052;50.930;5.326;2022-07-10T09:40:11;21.10;1.00
28947;DHT22;16052;50.930;5.326;2022-07-10T09:42:41;21.10;1.00
28947;DHT22;16052;50.930;5.326;2022-07-10T09:47:42;21.10;1.00
28947;DHT22;16052;50.930;5.326;2022-07-10T09:50:19;21.10;1.00
28947;DHT22;16052;50.930;5.326;2022-07-10T09:52:46;21.00;1.00
28947;DHT22;16052;50.930;5.326;2022-07-10T09:55:14;20.90;1.00
28947;DHT22;16052;50.930;5.326;2022-07-10T09:57:43;20.80;1.00
28947;DHT22;16052;50.930;5.326;2022-07-10T10:00:11;20.70;1.00
28947;DHT22;16052;50.930;5.326;2022-07-10T10:02:38;20.80;1.00
28947;DHT22;16052;50.930;5.326;2022-07-10T10:05:05;20.80;1.00
28947;DHT22;16052;50.930;5.326;2022-07-10T10:07:33;21.00;1.00
28947;DHT22;16052;50.930;5.326;2022-07-10T10:10:02;20.90;1.00
28947;DHT22;16052;50.930;5.326;2022-07-10T10:12:42;20.80;1.00
28947;DHT22;16052;50.930;5.326;2022-07-10T10:15:11;20.90;1.00
28947;DHT22;16052;50.930;5.326;2022-07-10T10:17:38;21.00;1.00
28947;DHT22;16052;50.930;5.326;2022-07-10T10:20:07;21.00;1.00
28947;DHT22;16052;50.930;5.326;2022-07-10T10:22:53;21.10;1.00
28947;DHT22;16052;50.930;5.326;2022-07-10T10:25:25;21.00;1.00
28947;DHT22;16052;50.930;5.326;2022-07-10T10:27:52;21.10;1.00
28947;DHT22;16052;50.930;5.326;2022-07-10T10:30:18;21.10;1.00
28947;DHT22;16052;50.930;5.326;2022-07-10T10:32:44;21.00;1.00
28947;DHT22;16052;50.930;5.326;2022-07-10T10:35:09;21.00;1.00
28947;DHT22;16052;50.930;5.326;2022-07-10T10:37:41;21.00;1.00
28947;DHT22;16052;50.930;5.326;2022-07-10T10:40:10;21.00;1.00
28947;DHT22;16052;50.930;5.326;2022-07-10T10:42:41;21.10;1.00
28947;DHT22;16052;50.930;5.326;2022-07-10T10:48:01;20.90;1.00
28947;DHT22;16052;50.930;5.326;2022-07-10T10:50:47;20.60;1.00
28947;DHT22;16052;50.930;5.326;2022-07-10T10:53:25;20.40;1.00
28947;DHT22;16052;50.930;5.326;2022-07-10T10:58:41;20.60;1.00
28947;DHT22;16052;50.930;5.326;2022-07-10T11:01:26;20.50;1.00
28947;DHT22;16052;50.930;5.326;2022-07-10T11:06:47;20.80;1.00
28947;DHT22;16052;50.930;5.326;2022-07-10T11:12:07;21.10;1.00
28947;DHT22;16052;50.930;5.326;2022-07-10T11:17:00;21.10;1.00
28947;DHT22;16052;50.930;5.326;2022-07-10T11:19:27;21.20;1.00
28947;DHT22;16052;50.930;5.326;2022-07-10T11:28:01;21.10;1.00
28947;DHT22;16052;50.930;5.326;2022-07-10T11:30:22;20.80;1.00
28947;DHT22;16052;50.930;5.326;2022-07-10T11:32:48;20.90;1.00
28947;DHT22;16052;50.930;5.326;2022-07-10T11:35:16;21.10;1.00
28947;DHT22;16052;50.930;5.326;2022-07-10T11:37:51;21.30;1.00
28947;DHT22;16052;50.930;5.326;2022-07-10T11:40:17;21.50;1.00
28947;DHT22;16052;50.930;5.326;2022-07-10T11:42:53;21.40;1.00
28947;DHT22;16052;50.930;5.326;2022-07-10T11:45:29;21.30;1.00
28947;DHT22;16052;50.930;5.326;2022-07-10T11:47:55;21.10;1.00
28947;DHT22;16052;50.930;5.326;2022-07-10T11:50:22;21.20;1.00
28947;DHT22;16052;50.930;5.326;2022-07-10T11:52:48;21.40;1.00
28947;DHT22;16052;50.930;5.326;2022-07-10T11:55:22;21.50;1.00
28947;DHT22;16052;50.930;5.326;2022-07-10T11:57:48;21.60;1.00
28947;DHT22;16052;50.930;5.326;2022-07-10T12:00:30;21.50;1.00
28947;DHT22;16052;50.930;5.326;2022-07-10T12:02:57;21.70;1.00
28947;DHT22;16052;50.930;5.326;2022-07-10T12:05:40;21.90;1.00
28947;DHT22;16052;50.930;5.326;2022-07-10T12:08:07;22.00;1.00
28947;DHT22;16052;50.930;5.326;2022-07-10T12:10:33;22.20;1.00
28947;DHT22;16052;50.930;5.326;2022-07-10T12:13:10;22.40;1.00
28947;DHT22;16052;50.930;5.326;2022-07-10T12:15:44;22.60;1.00
28947;DHT22;16052;50.930;5.326;2022-07-10T12:18:19;22.60;1.00
28947;DHT22;16052;50.930;5.326;2022-07-10T12:20:46;22.70;1.00
28947;DHT22;16052;50.930;5.326;2022-07-10T12:23:17;22.70;1.00
28947;DHT22;16052;50.930;5.326;2022-07-10T12:25:45;22.70;1.00
28947;DHT22;16052;50.930;5.326;2022-07-10T12:28:11;22.80;1.00
28947;DHT22;16052;50.930;5.326;2022-07-10T12:30:42;22.90;1.00
28947;DHT22;16052;50.930;5.326;2022-07-10T12:33:08;23.00;1.00
28947;DHT22;16052;50.930;5.326;2022-07-10T12:35:49;22.50;1.00
28947;DHT22;16052;50.930;5.326;2022-07-10T12:40:50;22.10;1.00
28947;DHT22;16052;50.930;5.326;2022-07-10T12:43:28;22.20;1.00
28947;DHT22;16052;50.930;5.326;2022-07-10T12:46:16;22.40;1.00
28947;DHT22;16052;50.930;5.326;2022-07-10T12:49:06;22.60;1.00
28947;DHT22;16052;50.930;5.326;2022-07-10T12:51:44;22.80;1.00
28947;DHT22;16052;50.930;5.326;2022-07-10T12:54:33;22.90;1.00
28947;DHT22;16052;50.930;5.326;2022-07-10T12:56:59;23.10;1.00
28947;DHT22;16052;50.930;5.326;2022-07-10T12:59:28;23.10;1.00
28947;DHT22;16052;50.930;5.326;2022-07-10T13:01:57;23.20;1.00
28947;DHT22;16052;50.930;5.326;2022-07-10T13:04:26;23.20;1.00
28947;DHT22;16052;50.930;5.326;2022-07-10T13:06:53;23.30;1.00
28947;DHT22;16052;50.930;5.326;2022-07-10T13:09:25;23.60;1.00
28947;DHT22;16052;50.930;5.326;2022-07-10T13:11:52;23.60;1.00
28947;DHT22;16052;50.930;5.326;2022-07-10T13:14:19;23.60;1.00
28947;DHT22;16052;50.930;5.326;2022-07-10T13:16:45;23.60;1.00
28947;DHT22;16052;50.930;5.326;2022-07-10T13:19:11;23.80;1.00
28947;DHT22;16052;50.930;5.326;2022-07-10T13:21:37;23.90;1.00
28947;DHT22;16052;50.930;5.326;2022-07-10T13:24:03;24.00;1.00
28947;DHT22;16052;50.930;5.326;2022-07-10T13:26:29;23.90;1.00
28947;DHT22;16052;50.930;5.326;2022-07-10T13:28:56;24.00;1.00
28947;DHT22;16052;50.930;5.326;2022-07-10T13:31:22;24.10;1.00
28947;DHT22;16052;50.930;5.326;2022-07-10T13:33:47;24.30;1.00
28947;DHT22;16052;50.930;5.326;2022-07-10T13:36:13;24.40;1.00
28947;DHT22;16052;50.930;5.326;2022-07-10T13:38:39;24.50;1.00
28947;DHT22;16052;50.930;5.326;2022-07-10T13:41:05;24.40;1.00
28947;DHT22;16052;50.930;5.326;2022-07-10T13:43:32;24.40;1.00
28947;DHT22;16052;50.930;5.326;2022-07-10T13:46:00;24.40;1.00
28947;DHT22;16052;50.930;5.326;2022-07-10T13:48:26;24.30;1.00
28947;DHT22;16052;50.930;5.326;2022-07-10T13:50:54;24.20;1.00
28947;DHT22;16052;50.930;5.326;2022-07-10T13:53:20;23.90;1.00
28947;DHT22;16052;50.930;5.326;2022-07-10T13:55:46;23.80;1.00
28947;DHT22;16052;50.930;5.326;2022-07-10T13:58:15;23.90;1.00
28947;DHT22;16052;50.930;5.326;2022-07-10T14:00:41;24.00;1.00
28947;DHT22;16052;50.930;5.326;2022-07-10T14:03:07;24.20;1.00
28947;DHT22;16052;50.930;5.326;2022-07-10T14:05:33;24.20;1.00
28947;DHT22;16052;50.930;5.326;2022-07-10T14:08:00;24.20;1.00
28947;DHT22;16052;50.930;5.326;2022-07-10T14:10:27;24.30;1.00
28947;DHT22;16052;50.930;5.326;2022-07-10T14:12:54;24.50;1.00
28947;DHT22;16052;50.930;5.326;2022-07-10T14:15:20;24.60;1.00
28947;DHT22;16052;50.930;5.326;2022-07-10T14:17:46;24.80;1.00
28947;DHT22;16052;50.930;5.326;2022-07-10T14:20:12;24.90;1.00
28947;DHT22;16052;50.930;5.326;2022-07-10T14:22:39;25.10;1.00
28947;DHT22;16052;50.930;5.326;2022-07-10T14:25:06;25.10;1.00
28947;DHT22;16052;50.930;5.326;2022-07-10T14:27:34;25.00;1.00
28947;DHT22;16052;50.930;5.326;2022-07-10T14:30:00;25.00;1.00
28947;DHT22;16052;50.930;5.326;2022-07-10T14:32:26;24.90;1.00
28947;DHT22;16052;50.930;5.326;2022-07-10T14:34:55;25.00;1.00
28947;DHT22;16052;50.930;5.326;2022-07-10T14:37:20;25.10;1.00
28947;DHT22;16052;50.930;5.326;2022-07-10T14:39:47;25.30;1.00
28947;DHT22;16052;50.930;5.326;2022-07-10T14:42:15;25.50;1.00
28947;DHT22;16052;50.930;5.326;2022-07-10T14:44:41;25.60;1.00
28947;DHT22;16052;50.930;5.326;2022-07-10T14:47:06;25.50;1.00
28947;DHT22;16052;50.930;5.326;2022-07-10T14:49:32;25.60;1.00
28947;DHT22;16052;50.930;5.326;2022-07-10T14:51:58;25.70;1.00
28947;DHT22;16052;50.930;5.326;2022-07-10T14:54:23;25.70;1.00
28947;DHT22;16052;50.930;5.326;2022-07-10T14:56:49;25.70;1.00
28947;DHT22;16052;50.930;5.326;2022-07-10T14:59:15;25.70;99.90
28947;DHT22;16052;50.930;5.326;2022-07-10T15:01:42;25.60;99.90
28947;DHT22;16052;50.930;5.326;2022-07-10T15:04:08;25.60;1.00
28947;DHT22;16052;50.930;5.326;2022-07-10T15:06:33;25.60;1.00
28947;DHT22;16052;50.930;5.326;2022-07-10T15:08:59;25.50;1.00
28947;DHT22;16052;50.930;5.326;2022-07-10T15:11:25;25.40;1.00
28947;DHT22;16052;50.930;5.326;2022-07-10T15:13:52;25.30;1.00
28947;DHT22;16052;50.930;5.326;2022-07-10T15:16:25;25.10;1.00
28947;DHT22;16052;50.930;5.326;2022-07-10T15:18:55;25.20;1.00
28947;DHT22;16052;50.930;5.326;2022-07-10T15:21:21;25.20;1.00
28947;DHT22;16052;50.930;5.326;2022-07-10T15:23:50;25.10;1.00
28947;DHT22;16052;50.930;5.326;2022-07-10T15:26:16;25.00;1.00
28947;DHT22;16052;50.930;5.326;2022-07-10T15:28:43;25.00;1.00
28947;DHT22;16052;50.930;5.326;2022-07-10T15:31:08;24.80;1.00
28947;DHT22;16052;50.930;5.326;2022-07-10T15:33:35;24.90;1.00
28947;DHT22;16052;50.930;5.326;2022-07-10T15:36:02;24.90;1.00
28947;DHT22;16052;50.930;5.326;2022-07-10T15:38:28;24.90;1.00
28947;DHT22;16052;50.930;5.326;2022-07-10T15:40:54;24.70;1.00
28947;DHT22;16052;50.930;5.326;2022-07-10T15:43:20;24.70;1.00
28947;DHT22;16052;50.930;5.326;2022-07-10T15:45:46;24.70;1.00
28947;DHT22;16052;50.930;5.326;2022-07-10T15:48:12;24.70;1.00
28947;DHT22;16052;50.930;5.326;2022-07-10T15:50:40;24.50;1.00
28947;DHT22;16052;50.930;5.326;2022-07-10T15:53:09;24.10;1.00
28947;DHT22;16052;50.930;5.326;2022-07-10T15:55:35;24.10;1.00
28947;DHT22;16052;50.930;5.326;2022-07-10T15:58:01;24.10;1.00
28947;DHT22;16052;50.930;5.326;2022-07-10T16:00:26;24.20;1.00
28947;DHT22;16052;50.930;5.326;2022-07-10T16:02:52;24.30;1.00
28947;DHT22;16052;50.930;5.326;2022-07-10T16:05:18;24.30;1.00
28947;DHT22;16052;50.930;5.326;2022-07-10T16:07:44;24.10;1.00
28947;DHT22;16052;50.930;5.326;2022-07-10T16:10:10;24.20;1.00